createdAt,value
2023-01-20T00:00:25.300Z,50.20
2023-01-20T00:03:17.740Z,47.70
2023-01-20T00:05:54.966Z,49.20
2023-01-20T00:08:27.337Z,47.30
2023-01-20T00:10:59.811Z,43.60
2023-01-20T00:13:32.290Z,49.60
2023-01-20T00:16:07.797Z,61.50
2023-01-20T00:18:40.852Z,65.00
2023-01-20T00:21:16.913Z,76.20
2023-01-20T00:23:50.213Z,51.20
2023-01-20T00:26:24.677Z,55.90
2023-01-20T00:28:58.918Z,46.50
2023-01-20T00:31:33.427Z,42.70
2023-01-20T00:34:06.507Z,33.40
2023-01-20T00:36:39.006Z,33.20
2023-01-20T00:39:11.386Z,43.20
2023-01-20T00:41:43.730Z,35.30
2023-01-20T00:44:16.122Z,36.40
2023-01-20T00:46:48.592Z,34.70
2023-01-20T00:49:21.125Z,32.70
2023-01-20T00:51:53.577Z,36.60
2023-01-20T00:54:25.962Z,51.60
2023-01-20T00:56:58.502Z,49.00
2023-01-20T00:59:30.953Z,36.40
2023-01-20T01:02:03.632Z,46.60
2023-01-20T01:04:36.111Z,95.10
2023-01-20T01:07:08.505Z,143.70
2023-01-20T01:09:40.991Z,187.20
2023-01-20T01:12:13.482Z,224.20
2023-01-20T01:14:45.703Z,215.40
2023-01-20T01:17:18.259Z,251.40
2023-01-20T01:19:50.681Z,154.40
2023-01-20T01:22:23.717Z,203.90
2023-01-20T01:24:56.116Z,349.10
2023-01-20T01:27:30.510Z,253.20
2023-01-20T01:30:02.966Z,345.70
2023-01-20T01:32:35.384Z,372.70
2023-01-20T01:35:08.871Z,130.10
2023-01-20T01:37:41.230Z,89.90
2023-01-20T01:40:14.917Z,92.20
2023-01-20T01:42:47.286Z,122.70
2023-01-20T01:45:28.039Z,71.40
2023-01-20T01:48:07.432Z,50.00
2023-01-20T01:50:45.797Z,40.90
2023-01-20T01:53:18.663Z,48.80
2023-01-20T01:55:55.594Z,44.30
2023-01-20T01:58:33.623Z,43.60
2023-01-20T02:01:06.451Z,44.60
2023-01-20T02:03:46.151Z,38.30
2023-01-20T02:06:19.630Z,35.10
2023-01-20T02:08:52.486Z,42.90
2023-01-20T02:11:25.225Z,39.10
2023-01-20T02:13:58.027Z,44.70
2023-01-20T02:16:41.682Z,47.90
2023-01-20T02:19:33.288Z,43.00
2023-01-20T02:22:16.667Z,45.30
2023-01-20T02:25:17.074Z,46.50
2023-01-20T02:28:30.715Z,46.30
2023-01-20T02:31:26.284Z,34.70
2023-01-20T02:34:03.391Z,33.90
2023-01-20T02:36:43.426Z,36.00
2023-01-20T02:39:27.343Z,37.10
2023-01-20T02:42:08.243Z,39.60
2023-01-20T02:44:44.375Z,37.10
2023-01-20T02:47:20.533Z,32.30
2023-01-20T02:49:59.310Z,33.30
2023-01-20T02:52:36.956Z,27.20
2023-01-20T02:55:14.506Z,28.30
2023-01-20T02:57:50.632Z,28.00
2023-01-20T03:00:29.356Z,30.00
2023-01-20T03:03:04.111Z,30.00
2023-01-20T03:05:42.312Z,28.60
2023-01-20T03:08:16.106Z,27.60
2023-01-20T03:10:52.551Z,27.00
2023-01-20T03:13:31.347Z,26.60
2023-01-20T03:16:07.670Z,28.30
2023-01-20T03:18:40.800Z,27.40
2023-01-20T03:21:14.025Z,25.80
2023-01-20T03:23:49.928Z,24.20
2023-01-20T03:26:23.951Z,26.40
2023-01-20T03:28:56.741Z,27.10
2023-01-20T03:31:35.586Z,25.20
2023-01-20T03:34:12.862Z,26.00
2023-01-20T03:36:46.843Z,24.80
2023-01-20T03:39:20.065Z,26.10
2023-01-20T03:41:59.735Z,25.60
2023-01-20T03:44:43.084Z,24.90
2023-01-20T03:47:25.214Z,27.20
2023-01-20T03:50:07.724Z,25.70
2023-01-20T03:52:50.261Z,25.10
2023-01-20T03:55:26.188Z,27.50
2023-01-20T03:58:03.578Z,28.30
2023-01-20T04:00:38.777Z,26.60
2023-01-20T04:05:46.843Z,27.20
2023-01-20T04:08:23.415Z,24.30
2023-01-20T04:10:57.351Z,25.00
2023-01-20T04:13:29.722Z,25.60
2023-01-20T04:16:03.663Z,24.70
2023-01-20T04:18:36.132Z,25.90
2023-01-20T04:21:11.785Z,25.30
2023-01-20T04:23:49.390Z,24.60
2023-01-20T04:26:21.831Z,26.40
2023-01-20T04:28:54.227Z,28.10
2023-01-20T04:31:31.185Z,28.00
2023-01-20T04:34:04.144Z,26.40
2023-01-20T04:36:36.570Z,24.30
2023-01-20T04:39:09.231Z,25.40
2023-01-20T04:41:41.597Z,28.80
2023-01-20T04:44:14.008Z,25.60
2023-01-20T04:46:47.550Z,26.50
2023-01-20T04:49:19.996Z,26.00
2023-01-20T04:51:52.346Z,28.50
2023-01-20T04:54:24.691Z,32.00
2023-01-20T04:56:57.062Z,27.50
2023-01-20T04:59:29.534Z,26.50
2023-01-20T05:02:02.055Z,24.00
2023-01-20T05:04:34.552Z,23.90
2023-01-20T05:07:06.994Z,25.70
2023-01-20T05:09:39.595Z,24.90
2023-01-20T05:12:12.016Z,27.90
2023-01-20T05:14:44.293Z,24.60
2023-01-20T05:17:16.690Z,23.00
2023-01-20T05:19:49.136Z,27.70
2023-01-20T05:22:21.433Z,37.70
2023-01-20T05:24:53.742Z,29.60
2023-01-20T05:27:26.127Z,28.40
2023-01-20T05:29:58.449Z,25.30
2023-01-20T05:32:30.946Z,34.60
2023-01-20T05:35:03.376Z,31.10
2023-01-20T05:37:35.805Z,32.00
2023-01-20T05:40:10.147Z,23.50
2023-01-20T05:42:42.644Z,23.20
2023-01-20T05:45:15.414Z,22.60
2023-01-20T05:47:48.042Z,24.90
2023-01-20T05:50:20.795Z,37.20
2023-01-20T05:52:53.191Z,28.90
2023-01-20T05:55:25.791Z,25.90
2023-01-20T05:57:58.056Z,26.20
2023-01-20T06:00:30.816Z,27.30
2023-01-20T06:03:03.494Z,26.60
2023-01-20T06:05:35.871Z,30.30
2023-01-20T06:08:09.089Z,28.70
2023-01-20T06:10:41.417Z,26.90
2023-01-20T06:13:14.131Z,26.10
2023-01-20T06:15:46.681Z,25.50
2023-01-20T06:18:19.171Z,25.90
2023-01-20T06:20:51.754Z,24.20
2023-01-20T06:23:24.120Z,28.00
2023-01-20T06:26:03.414Z,26.80
2023-01-20T06:28:36.346Z,30.20
2023-01-20T06:31:11.171Z,30.50
2023-01-20T06:33:44.773Z,27.60
2023-01-20T06:36:17.824Z,30.40
2023-01-20T06:38:51.103Z,26.20
2023-01-20T06:41:24.341Z,26.20
2023-01-20T06:43:56.645Z,28.30
2023-01-20T06:46:28.938Z,28.30
2023-01-20T06:49:01.402Z,26.70
2023-01-20T06:51:34.664Z,25.80
2023-01-20T06:54:07.161Z,25.80
2023-01-20T06:56:39.491Z,28.10
2023-01-20T06:59:12.321Z,24.90
2023-01-20T07:01:44.705Z,28.90
2023-01-20T07:04:17.476Z,33.00
2023-01-20T07:06:49.873Z,27.90
2023-01-20T07:09:22.383Z,24.10
2023-01-20T07:11:54.720Z,24.10
2023-01-20T07:14:27.046Z,26.10
2023-01-20T07:16:59.417Z,24.90
2023-01-20T07:19:31.794Z,26.10
2023-01-20T07:22:04.163Z,25.70
2023-01-20T07:24:36.535Z,39.80
2023-01-20T07:27:08.791Z,35.20
2023-01-20T07:29:41.234Z,30.60
2023-01-20T07:32:13.632Z,25.60
2023-01-20T07:34:47.269Z,26.10
2023-01-20T07:37:21.166Z,26.40
2023-01-20T07:39:53.716Z,25.30
2023-01-20T07:42:26.375Z,27.40
2023-01-20T07:44:59.130Z,26.80
2023-01-20T07:47:31.505Z,26.10
2023-01-20T07:50:03.798Z,26.30
2023-01-20T07:52:36.200Z,28.40
2023-01-20T07:55:10.730Z,25.90
2023-01-20T07:57:43.087Z,29.10
2023-01-20T08:00:16.876Z,27.90
2023-01-20T08:02:49.197Z,29.20
2023-01-20T08:05:22.542Z,28.70
2023-01-20T08:07:55.323Z,29.40
2023-01-20T08:10:29.005Z,28.40
2023-01-20T08:13:02.166Z,29.30
2023-01-20T08:15:34.494Z,28.00
2023-01-20T08:18:06.976Z,30.60
2023-01-20T08:20:42.648Z,31.60
2023-01-20T08:23:15.017Z,27.50
2023-01-20T08:25:47.398Z,29.10
2023-01-20T08:28:19.761Z,30.70
2023-01-20T08:30:52.237Z,30.20
2023-01-20T08:33:24.662Z,30.90
2023-01-20T08:35:59.333Z,31.00
2023-01-20T08:38:31.713Z,31.60
2023-01-20T08:41:07.079Z,27.10
2023-01-20T08:43:39.837Z,29.00
2023-01-20T08:46:14.590Z,27.50
2023-01-20T08:48:47.345Z,25.50
2023-01-20T08:51:21.348Z,29.20
2023-01-20T08:53:54.144Z,28.00
2023-01-20T08:56:26.897Z,30.50
2023-01-20T08:59:01.653Z,26.90
2023-01-20T09:01:38.005Z,32.10
2023-01-20T09:04:10.929Z,29.20
2023-01-20T09:06:46.454Z,28.40
2023-01-20T09:09:20.907Z,29.70
2023-01-20T09:11:53.583Z,29.70
2023-01-20T09:14:27.006Z,29.40
2023-01-20T09:17:00.609Z,29.40
2023-01-20T09:19:33.010Z,27.00
2023-01-20T09:22:05.888Z,27.20
2023-01-20T09:24:38.262Z,28.30
2023-01-20T09:27:10.607Z,29.50
2023-01-20T09:29:42.985Z,26.90
2023-01-20T09:32:15.866Z,30.60
2023-01-20T09:34:48.319Z,28.20
2023-01-20T09:37:37.483Z,26.00
2023-01-20T09:40:34.176Z,27.90
2023-01-20T09:43:37.347Z,27.10
2023-01-20T09:46:15.329Z,25.70
2023-01-20T09:49:12.857Z,27.20
2023-01-20T09:52:12.733Z,28.90
2023-01-20T09:54:49.893Z,27.00
2023-01-20T09:57:25.900Z,26.80
2023-01-20T10:00:06.576Z,28.60
2023-01-20T10:02:41.734Z,27.40
2023-01-20T10:05:20.222Z,27.90
2023-01-20T10:07:59.097Z,27.60
2023-01-20T10:10:37.823Z,31.00
2023-01-20T10:13:18.360Z,24.40
2023-01-20T10:15:54.078Z,27.90
2023-01-20T10:18:38.106Z,24.90
2023-01-20T10:21:14.456Z,25.80
2023-01-20T10:23:53.266Z,29.90
2023-01-20T10:26:38.323Z,35.90
2023-01-20T10:29:17.500Z,20.70
2023-01-20T10:31:54.777Z,21.20
2023-01-20T10:34:33.339Z,23.70
2023-01-20T10:37:10.653Z,23.80
2023-01-20T10:39:49.142Z,25.00
2023-01-20T10:42:24.333Z,24.90
2023-01-20T10:47:42.890Z,30.80
2023-01-20T10:50:32.172Z,32.60
2023-01-20T10:53:22.536Z,26.10
2023-01-20T10:56:08.965Z,24.00
2023-01-20T10:58:45.483Z,21.80
2023-01-20T11:01:20.220Z,23.70
2023-01-20T11:03:52.722Z,24.50
2023-01-20T11:06:27.909Z,22.00
2023-01-20T11:11:34.409Z,22.30
2023-01-20T11:14:09.323Z,24.70
2023-01-20T11:16:44.956Z,21.50
2023-01-20T11:19:17.397Z,24.60
2023-01-20T11:21:51.077Z,22.30
2023-01-20T11:24:42.546Z,26.40
2023-01-20T11:27:18.137Z,25.60
2023-01-20T11:29:54.133Z,21.90
2023-01-20T11:32:35.921Z,25.80
2023-01-20T11:35:23.273Z,24.00
2023-01-20T11:37:55.674Z,23.80
2023-01-20T11:40:30.017Z,24.50
2023-01-20T11:43:02.466Z,24.00
2023-01-20T11:45:36.319Z,24.00
2023-01-20T11:48:21.651Z,36.40
2023-01-20T11:50:58.637Z,40.30
2023-01-20T11:53:32.288Z,34.80
2023-01-20T11:56:07.250Z,27.90
2023-01-20T12:01:27.733Z,29.30
2023-01-20T12:04:28.866Z,30.10
2023-01-20T12:07:08.293Z,27.20
2023-01-20T12:09:44.201Z,23.70
2023-01-20T12:12:25.506Z,25.90
2023-01-20T12:15:03.552Z,29.40
2023-01-20T12:17:53.699Z,26.90
2023-01-20T12:20:42.373Z,57.90
2023-01-20T12:23:31.291Z,31.90
2023-01-20T12:26:06.445Z,22.60
2023-01-20T12:28:43.640Z,23.00
2023-01-20T12:31:20.264Z,34.60
2023-01-20T12:33:57.612Z,37.50
2023-01-20T12:36:58.270Z,49.20
2023-01-20T12:39:52.443Z,58.40
2023-01-20T12:43:00.980Z,84.00
2023-01-20T12:45:48.214Z,64.90
2023-01-20T12:48:34.619Z,35.20
2023-01-20T12:51:22.489Z,30.10
2023-01-20T12:54:21.953Z,29.40
2023-01-20T12:57:03.275Z,32.10
2023-01-20T12:59:48.699Z,31.20
2023-01-20T13:02:40.446Z,37.70
2023-01-20T13:05:44.058Z,43.50
2023-01-20T13:08:24.621Z,31.90
2023-01-20T13:11:12.638Z,42.10
2023-01-20T13:14:00.320Z,31.90
2023-01-20T13:16:41.012Z,26.10
2023-01-20T13:19:20.886Z,26.70
2023-01-20T13:22:07.227Z,33.60
2023-01-20T13:24:44.858Z,35.30
2023-01-20T13:27:20.977Z,32.50
2023-01-20T13:29:58.746Z,26.20
2023-01-20T13:32:37.778Z,25.80
2023-01-20T13:35:40.995Z,25.50
2023-01-20T13:38:22.021Z,41.60
2023-01-20T13:41:03.277Z,31.90
2023-01-20T13:43:51.194Z,29.00
2023-01-20T13:46:47.498Z,36.40
2023-01-20T13:49:29.628Z,32.70
2023-01-20T13:52:02.000Z,33.60
2023-01-20T13:54:48.400Z,33.50
2023-01-20T13:57:38.322Z,43.30
2023-01-20T14:00:21.086Z,41.40
2023-01-20T14:02:54.253Z,33.70
2023-01-20T14:05:34.762Z,31.30
2023-01-20T14:08:13.915Z,41.40
2023-01-20T14:10:46.620Z,36.80
2023-01-20T14:13:24.245Z,40.30
2023-01-20T14:15:58.208Z,39.30
2023-01-20T14:18:31.831Z,40.10
2023-01-20T14:21:17.213Z,31.60
2023-01-20T14:23:49.565Z,36.20
2023-01-20T14:26:26.805Z,44.90
2023-01-20T14:29:01.035Z,45.80
2023-01-20T14:31:40.862Z,39.60
2023-01-20T14:34:27.541Z,37.60
2023-01-20T14:37:03.790Z,40.40
2023-01-20T14:39:36.775Z,37.80
2023-01-20T14:42:20.916Z,34.40
2023-01-20T14:44:54.827Z,33.20
2023-01-20T14:47:28.605Z,32.40
2023-01-20T14:50:03.192Z,28.60
2023-01-20T14:52:35.681Z,28.20
2023-01-20T14:55:22.571Z,29.40
2023-01-20T14:57:55.302Z,25.70
2023-01-20T15:00:30.511Z,26.90
2023-01-20T15:05:54.846Z,32.10
2023-01-20T15:08:30.058Z,35.90
2023-01-20T15:11:31.501Z,35.80
2023-01-20T15:14:14.004Z,24.90
2023-01-20T15:16:53.704Z,31.00
2023-01-20T15:19:46.283Z,25.60
2023-01-20T15:22:27.806Z,32.80
2023-01-20T15:25:13.496Z,27.90
2023-01-20T15:27:53.108Z,30.70
2023-01-20T15:30:29.891Z,26.90
2023-01-20T15:33:02.208Z,26.60
2023-01-20T15:35:35.938Z,28.90
2023-01-20T15:38:12.844Z,28.50
2023-01-20T15:40:45.221Z,26.70
2023-01-20T15:43:19.229Z,24.80
2023-01-20T15:45:51.601Z,22.10
2023-01-20T15:48:24.845Z,28.00
2023-01-20T15:50:57.363Z,41.90
2023-01-20T15:53:29.612Z,37.80
2023-01-20T15:56:03.164Z,68.10
2023-01-20T15:58:38.087Z,120.00
2023-01-20T16:01:13.779Z,117.80
2023-01-20T16:03:46.508Z,113.00
2023-01-20T16:06:20.595Z,47.50
2023-01-20T16:08:53.352Z,30.90
2023-01-20T16:11:25.748Z,25.20
2023-01-20T16:13:58.357Z,29.50
2023-01-20T16:16:33.380Z,42.80
2023-01-20T16:19:06.806Z,35.50
2023-01-20T16:21:39.140Z,29.90
2023-01-20T16:24:12.331Z,35.10
2023-01-20T16:26:47.151Z,27.60
2023-01-20T16:29:19.555Z,30.20
2023-01-20T16:31:52.157Z,33.60
2023-01-20T16:34:24.529Z,31.60
2023-01-20T16:36:57.014Z,32.10
2023-01-20T16:39:29.300Z,29.20
2023-01-20T16:42:01.761Z,28.80
2023-01-20T16:44:34.200Z,34.80
2023-01-20T16:47:08.381Z,23.60
2023-01-20T16:49:40.965Z,33.10
2023-01-20T16:52:14.786Z,28.70
2023-01-20T16:54:47.739Z,26.40
2023-01-20T16:57:20.468Z,19.50
2023-01-20T16:59:52.920Z,19.90
2023-01-20T17:02:25.425Z,21.80
2023-01-20T17:04:57.997Z,17.00
2023-01-20T17:07:30.602Z,20.20
2023-01-20T17:10:03.524Z,20.30
2023-01-20T17:12:36.058Z,20.70
2023-01-20T17:15:10.169Z,18.90
2023-01-20T17:17:42.603Z,23.80
2023-01-20T17:20:15.497Z,26.10
2023-01-20T17:22:48.421Z,22.10
2023-01-20T17:25:20.796Z,26.10
2023-01-20T17:27:53.297Z,31.30
2023-01-20T17:30:26.579Z,27.80
2023-01-20T17:32:59.175Z,28.10
2023-01-20T17:35:31.509Z,24.90
2023-01-20T17:38:03.812Z,32.40
2023-01-20T17:40:36.237Z,36.20
2023-01-20T17:43:08.636Z,46.30
2023-01-20T17:45:41.865Z,41.90
2023-01-20T17:48:14.419Z,77.20
2023-01-20T17:50:47.046Z,65.20
2023-01-20T17:53:19.562Z,36.30
2023-01-20T17:56:02.985Z,62.60
2023-01-20T17:58:44.820Z,33.80
2023-01-20T18:01:19.187Z,28.40
2023-01-20T18:03:53.638Z,32.10
2023-01-20T18:06:27.857Z,33.40
2023-01-20T18:09:01.916Z,46.40
2023-01-20T18:11:36.707Z,22.90
2023-01-20T18:14:09.503Z,21.40
2023-01-20T18:16:42.900Z,24.00
2023-01-20T18:19:16.290Z,22.70
2023-01-20T18:21:48.853Z,31.80
2023-01-20T18:24:21.325Z,24.70
2023-01-20T18:26:54.599Z,29.80
2023-01-20T18:29:30.208Z,35.00
2023-01-20T18:32:02.753Z,23.50
2023-01-20T18:34:35.454Z,26.30
2023-01-20T18:37:07.897Z,23.30
2023-01-20T18:39:40.317Z,20.10
2023-01-20T18:42:12.921Z,18.20
2023-01-20T18:44:45.569Z,15.60
2023-01-20T18:47:18.101Z,15.70
2023-01-20T18:49:50.706Z,18.20
2023-01-20T18:52:23.257Z,18.70
2023-01-20T18:54:55.810Z,18.60
2023-01-20T18:57:28.340Z,21.20
2023-01-20T19:00:00.810Z,18.80
2023-01-20T19:02:34.399Z,16.10
2023-01-20T19:05:09.543Z,17.60
2023-01-20T19:07:41.946Z,16.30
2023-01-20T19:10:15.310Z,27.70
2023-01-20T19:12:48.590Z,29.70
2023-01-20T19:15:21.809Z,29.50
2023-01-20T19:17:54.924Z,26.90
2023-01-20T19:20:27.348Z,30.40
2023-01-20T19:22:59.803Z,17.30
2023-01-20T19:25:32.300Z,22.10
2023-01-20T19:28:06.674Z,26.70
2023-01-20T19:30:39.627Z,18.20
2023-01-20T19:33:12.304Z,20.20
2023-01-20T19:35:44.787Z,21.20
2023-01-20T19:38:17.621Z,25.30
2023-01-20T19:40:50.383Z,22.20
2023-01-20T19:43:22.875Z,21.00
2023-01-20T19:45:55.260Z,20.80
2023-01-20T19:48:27.634Z,15.40
2023-01-20T19:51:05.060Z,18.60
2023-01-20T19:53:38.201Z,26.70
2023-01-20T19:56:15.419Z,22.00
2023-01-20T19:58:49.408Z,18.70
2023-01-20T20:01:23.236Z,23.80
2023-01-20T20:03:56.640Z,24.40
2023-01-20T20:06:32.243Z,28.60
2023-01-20T20:09:07.061Z,17.00
2023-01-20T20:11:40.169Z,13.30
2023-01-20T20:14:15.117Z,17.40
2023-01-20T20:16:48.462Z,14.40
2023-01-20T20:19:22.789Z,18.10
2023-01-20T20:21:56.560Z,19.40
2023-01-20T20:24:29.190Z,21.10
2023-01-20T20:27:01.642Z,17.00
2023-01-20T20:29:34.321Z,14.10
2023-01-20T20:32:07.313Z,16.80
2023-01-20T20:34:40.092Z,14.00
2023-01-20T20:37:12.669Z,16.80
2023-01-20T20:39:45.837Z,18.00
2023-01-20T20:42:18.429Z,16.20
2023-01-20T20:44:50.783Z,19.10
2023-01-20T20:47:24.666Z,17.30
2023-01-20T20:49:58.753Z,17.20
2023-01-20T20:52:31.637Z,25.40
2023-01-20T20:55:04.065Z,27.00
2023-01-20T20:57:37.127Z,23.40
2023-01-20T21:00:12.481Z,24.70
2023-01-20T21:02:44.853Z,32.40
2023-01-20T21:05:19.080Z,24.50
2023-01-20T21:07:52.071Z,22.20
2023-01-20T21:10:24.601Z,22.40
2023-01-20T21:12:57.742Z,13.80
2023-01-20T21:15:31.083Z,20.10
2023-01-20T21:18:03.717Z,17.00
2023-01-20T21:20:36.483Z,21.70
2023-01-20T21:23:09.030Z,21.80
2023-01-20T21:25:41.344Z,25.00
2023-01-20T21:28:13.875Z,31.70
2023-01-20T21:30:46.847Z,600.20
2023-01-20T21:33:19.401Z,501.60
2023-01-20T21:35:51.999Z,312.60
2023-01-20T21:38:24.616Z,136.60
2023-01-20T21:41:02.872Z,136.20
2023-01-20T21:43:54.633Z,225.50
2023-01-20T21:46:29.067Z,240.70
2023-01-20T21:49:19.294Z,293.00
2023-01-20T21:52:09.281Z,225.00
2023-01-20T21:54:41.900Z,129.60
2023-01-20T21:57:14.663Z,137.30
2023-01-20T21:59:47.243Z,78.60
2023-01-20T22:02:20.045Z,43.90
2023-01-20T22:04:52.455Z,31.30
2023-01-20T22:07:25.527Z,34.80
2023-01-20T22:09:58.390Z,28.80
2023-01-20T22:12:34.702Z,34.00
2023-01-20T22:15:08.946Z,23.80
2023-01-20T22:17:41.588Z,31.90
2023-01-20T22:20:16.104Z,21.00
2023-01-20T22:22:48.736Z,14.70
2023-01-20T22:25:21.125Z,17.10
2023-01-20T22:27:53.773Z,12.20
2023-01-20T22:30:26.164Z,13.10
2023-01-20T22:32:58.694Z,19.10
2023-01-20T22:35:32.652Z,14.60
2023-01-20T22:38:05.610Z,18.20
2023-01-20T22:40:38.438Z,15.00
2023-01-20T22:43:10.722Z,16.10
2023-01-20T22:45:43.134Z,13.50
2023-01-20T22:48:15.601Z,12.50
2023-01-20T22:50:48.188Z,14.20
2023-01-20T22:53:20.677Z,18.20
2023-01-20T22:56:00.931Z,12.10
2023-01-20T22:58:34.632Z,12.50
2023-01-20T23:01:12.554Z,13.80
2023-01-20T23:03:45.939Z,12.60
2023-01-20T23:06:18.386Z,15.10
2023-01-20T23:08:51.318Z,13.60
2023-01-20T23:11:25.022Z,10.40
2023-01-20T23:13:57.549Z,10.00
2023-01-20T23:16:30.125Z,9.50
2023-01-20T23:19:02.477Z,11.80
2023-01-20T23:21:35.077Z,10.10
2023-01-20T23:24:09.108Z,10.50
2023-01-20T23:26:41.468Z,21.70
2023-01-20T23:29:14.014Z,13.10
2023-01-20T23:31:46.404Z,14.20
2023-01-20T23:34:18.837Z,11.20
2023-01-20T23:36:51.237Z,14.10
2023-01-20T23:39:24.077Z,13.60
2023-01-20T23:41:56.725Z,8.80
2023-01-20T23:44:29.173Z,10.70
2023-01-20T23:47:01.523Z,12.10
2023-01-20T23:49:33.976Z,10.50
2023-01-20T23:52:06.548Z,11.50
2023-01-20T23:54:38.845Z,11.00
2023-01-20T23:57:11.192Z,10.90
2023-01-20T23:59:44.745Z,9.60
